Pearl, Vermont
Current Conditions -  °F | °C
As of 9:15 PM on Wednesday 17 Dec 2014 (Local Time) from KPBG Reporting Station
Moderate Fog Moderate Fog  
Wind Chill: 34°   Ceiling: 300
Heat Index: 34°   Visibility: 0.5mi
Dew Point: 33°   Wind: 0mph
Humidity: 96%   Direction: NA
Pressure: 29.77"   Gusts: NA
Location:  44.717°N, 73.3067°W
Report Text: KPBG 180215Z AUTO 00000KT 1/2SM FG BKN003 OVC042 01/01 A2977 RMK AO2 T00110006
Loading
Personal Weather Stations






























Interactive Weather Map New forecast layout! Learn more

10-Day Weather Forecast

Advertisements
Track Severe Weather on mobile